Time;durP1;ratioP1;P1;durP2;ratioP2;P2;SDS_P1;SDS_P2;PMS_P1;PMS_P2;Temp;Humidity;BMP_temperature;BMP_pressure;BME280_temperature;BME280_humidity;BME280_pressure;Samples;Min_cycle;Max_cycle;Signal;HPM_P1;HPM_P2
2022/01/25 00:08:41;;;;;;;24.70;20.13;;;5.60;99.90;;;;;;4969507;28;20219;-73
2022/01/25 00:25:45;;;;;;;20.20;17.40;;;5.80;99.90;;;;;;5008708;28;20538;-73
2022/01/25 00:28:22;;;;;;;20.50;17.93;;;5.50;99.90;;;;;;5007354;28;20222;-75
2022/01/25 00:31:01;;;;;;;22.27;17.63;;;5.50;99.90;;;;;;5021901;28;20577;-74
2022/01/25 00:33:30;;;;;;;24.83;19.00;;;5.60;99.90;;;;;;5003037;28;20198;-74
2022/01/25 00:36:00;;;;;;;22.60;18.70;;;5.70;99.90;;;;;;5007983;28;20205;-74
2022/01/25 00:38:28;;;;;;;22.33;18.07;;;5.60;99.90;;;;;;5008370;28;20229;-74
2022/01/25 00:40:55;;;;;;;24.27;20.07;;;5.40;99.90;;;;;;5003485;28;20207;-75
2022/01/25 00:43:25;;;;;;;29.43;21.47;;;5.30;99.90;;;;;;5008396;28;20206;-73
2022/01/25 00:45:56;;;;;;;23.70;18.97;;;5.30;99.90;;;;;;5009976;28;20202;-73
2022/01/25 00:48:31;;;;;;;26.17;20.37;;;5.30;99.90;;;;;;5009694;28;20222;-75
2022/01/25 00:51:16;;;;;;;26.30;19.83;;;5.40;99.90;;;;;;5006141;28;20195;-74
2022/01/25 00:53:56;;;;;;;23.47;18.63;;;5.40;99.90;;;;;;5010412;28;20253;-73
2022/01/25 00:56:24;;;;;;;24.27;18.03;;;5.30;99.90;;;;;;5007205;28;20207;-74
2022/01/25 00:58:52;;;;;;;23.73;19.17;;;5.30;99.90;;;;;;5000618;28;20222;-74
2022/01/25 01:01:20;;;;;;;24.27;18.93;;;5.30;99.90;;;;;;5006769;28;20236;-74
2022/01/25 01:03:48;;;;;;;24.40;18.73;;;5.40;99.90;;;;;;5010139;28;20218;-73
2022/01/25 01:06:17;;;;;;;24.70;19.10;;;5.50;99.90;;;;;;5007869;28;20200;-73
2022/01/25 01:08:45;;;;;;;25.63;20.10;;;5.60;99.90;;;;;;5013396;28;20338;-74
2022/01/25 01:11:18;;;;;;;25.73;20.27;;;5.50;99.90;;;;;;5027673;28;20200;-74
2022/01/25 01:13:56;;;;;;;30.33;22.40;;;5.40;99.90;;;;;;5006086;28;20202;-73
2022/01/25 01:30:26;;;;;;;27.63;20.43;;;5.60;99.90;;;;;;5025562;28;20208;-73
2022/01/25 01:39:57;;;;;;;28.13;20.40;;;5.30;99.90;;;;;;4997109;28;20197;-73
2022/01/25 01:49:11;;;;;;;31.60;21.97;;;5.50;99.90;;;;;;4952709;28;20211;-74
2022/01/25 01:51:43;;;;;;;33.77;24.53;;;5.60;99.90;;;;;;4947979;28;20212;-73
2022/01/25 01:54:13;;;;;;;35.03;22.57;;;5.50;99.90;;;;;;4992548;28;20218;-75
2022/01/25 01:56:43;;;;;;;34.77;23.63;;;5.60;99.90;;;;;;5010060;28;20208;-74
2022/01/25 01:59:13;;;;;;;38.93;25.57;;;5.60;99.90;;;;;;5007064;28;20228;-74
2022/01/25 02:01:42;;;;;;;43.27;25.83;;;5.60;99.90;;;;;;5007891;28;20211;-74
2022/01/25 02:04:12;;;;;;;46.70;27.00;;;5.50;99.90;;;;;;5010031;28;20237;-76
2022/01/25 02:06:40;;;;;;;47.60;27.50;;;5.60;99.90;;;;;;5010173;28;20203;-75
2022/01/25 02:09:08;;;;;;;49.80;28.80;;;5.50;99.90;;;;;;5007673;28;20223;-74
2022/01/25 02:11:37;;;;;;;51.27;28.23;;;5.60;99.90;;;;;;5009582;28;20197;-74
2022/01/25 02:14:08;;;;;;;54.27;29.97;;;5.70;99.90;;;;;;5010547;28;20210;-75
2022/01/25 02:16:45;;;;;;;56.10;28.20;;;5.50;99.90;;;;;;5006325;28;20212;-74
2022/01/25 02:24:47;;;;;;;67.03;31.90;;;5.50;99.90;;;;;;5009651;28;20210;-73
2022/01/25 02:27:16;;;;;;;64.50;31.23;;;5.40;99.90;;;;;;5011574;28;20202;-74
2022/01/25 02:29:44;;;;;;;65.73;33.37;;;5.40;99.90;;;;;;5009991;28;20202;-74
2022/01/25 02:32:12;;;;;;;75.97;34.70;;;5.50;99.90;;;;;;5011233;28;20204;-73
2022/01/25 02:34:40;;;;;;;66.47;34.17;;;5.50;99.90;;;;;;5011276;28;20665;-74
2022/01/25 02:37:11;;;;;;;65.67;33.47;;;5.50;99.90;;;;;;5002642;28;20202;-74
2022/01/25 02:39:42;;;;;;;70.13;34.97;;;5.60;99.90;;;;;;5008856;28;20821;-77
2022/01/25 02:42:10;;;;;;;74.63;36.83;;;5.50;99.90;;;;;;5011197;28;20217;-74
2022/01/25 02:44:39;;;;;;;77.83;36.67;;;5.60;99.90;;;;;;5006876;28;20200;-75
2022/01/25 02:49:52;;;;;;;85.27;38.93;;;5.60;99.90;;;;;;5005213;28;20206;-74
2022/01/25 02:52:21;;;;;;;77.47;37.67;;;5.60;99.90;;;;;;5011667;28;20187;-73
2022/01/25 02:54:49;;;;;;;83.80;39.30;;;5.60;99.90;;;;;;5007936;28;20195;-74
2022/01/25 02:57:17;;;;;;;78.27;39.03;;;5.50;99.90;;;;;;5009051;28;20201;-73
2022/01/25 02:59:47;;;;;;;77.03;38.83;;;5.60;99.90;;;;;;5027175;28;20206;-74
2022/01/25 03:02:14;;;;;;;80.00;39.83;;;5.60;99.90;;;;;;5011022;28;20222;-74
2022/01/25 03:04:42;;;;;;;85.57;40.80;;;5.60;99.90;;;;;;5017949;28;20250;-73
2022/01/25 03:07:09;;;;;;;79.23;38.77;;;5.50;99.90;;;;;;5007507;28;20202;-74
2022/01/25 03:09:40;;;;;;;82.43;39.43;;;5.50;99.90;;;;;;4999152;28;20195;-74
2022/01/25 03:12:12;;;;;;;80.33;38.20;;;5.40;99.90;;;;;;5011892;28;20218;-75
2022/01/25 03:14:57;;;;;;;78.20;39.37;;;5.50;99.90;;;;;;5012849;28;20660;-75
2022/01/25 03:17:29;;;;;;;79.33;39.57;;;5.40;99.90;;;;;;5010865;28;20719;-74
2022/01/25 03:20:05;;;;;;;85.47;42.60;;;5.40;99.90;;;;;;5005927;28;20190;-74
2022/01/25 03:22:56;;;;;;;82.17;39.73;;;5.30;99.90;;;;;;5004733;28;20427;-74
2022/01/25 03:25:26;;;;;;;81.70;39.17;;;5.50;99.90;;;;;;5024337;28;20198;-79
2022/01/25 03:27:53;;;;;;;75.70;37.30;;;5.40;99.90;;;;;;5017811;28;20227;-73
2022/01/25 03:30:21;;;;;;;74.77;38.67;;;5.50;99.90;;;;;;5009100;28;20202;-74
2022/01/25 03:32:48;;;;;;;70.00;35.77;;;5.40;99.90;;;;;;5010056;28;20189;-76
2022/01/25 03:35:15;;;;;;;65.87;33.60;;;5.40;99.90;;;;;;5003675;28;20190;-74
2022/01/25 03:37:43;;;;;;;61.37;34.03;;;5.40;99.90;;;;;;5021678;28;20222;-75
2022/01/25 03:40:12;;;;;;;60.20;32.93;;;5.40;99.90;;;;;;5006928;28;20201;-75
2022/01/25 03:42:41;;;;;;;68.77;35.17;;;5.20;99.90;;;;;;5009839;28;20223;-74
2022/01/25 03:45:17;;;;;;;61.63;34.57;;;5.30;99.90;;;;;;5003711;28;20195;-74
2022/01/25 03:47:57;;;;;;;64.20;33.37;;;5.50;99.90;;;;;;5010578;28;20220;-74
2022/01/25 03:50:24;;;;;;;59.97;32.93;;;5.50;99.90;;;;;;5005705;28;20194;-74
2022/01/25 03:52:51;;;;;;;62.07;33.60;;;5.60;99.90;;;;;;5007836;28;20217;-74
2022/01/25 03:55:19;;;;;;;57.20;31.70;;;5.70;99.90;;;;;;5008873;28;20204;-74
2022/01/25 03:57:48;;;;;;;54.83;31.53;;;5.60;99.90;;;;;;5007200;28;20239;-74
2022/01/25 04:00:16;;;;;;;59.53;32.43;;;5.60;99.90;;;;;;5008086;28;20560;-76
2022/01/25 04:02:51;;;;;;;57.43;31.87;;;5.60;99.90;;;;;;5007769;28;20679;-74
2022/01/25 04:05:23;;;;;;;62.40;34.10;;;5.70;99.90;;;;;;5005942;28;20206;-74
2022/01/25 04:07:52;;;;;;;58.03;32.47;;;5.60;99.90;;;;;;5006190;28;20232;-76
2022/01/25 04:10:20;;;;;;;63.00;34.00;;;5.60;99.90;;;;;;5007585;28;20203;-74
2022/01/25 04:12:48;;;;;;;59.60;34.60;;;5.70;99.90;;;;;;5004064;28;20206;-76
2022/01/25 04:15:16;;;;;;;66.37;35.00;;;5.60;99.90;;;;;;5007453;28;20202;-74
2022/01/25 04:17:48;;;;;;;63.30;35.27;;;5.50;99.90;;;;;;5008463;28;20231;-75
2022/01/25 04:20:20;;;;;;;62.43;34.80;;;5.50;99.90;;;;;;5008399;28;20213;-75
2022/01/25 04:25:59;;;;;;;63.43;36.20;;;5.50;99.90;;;;;;5006775;28;20190;-74
2022/01/25 04:28:28;;;;;;;64.10;34.87;;;5.50;99.90;;;;;;5019121;28;20712;-74
2022/01/25 04:30:58;;;;;;;64.10;35.83;;;5.50;99.90;;;;;;5010091;28;20211;-74
2022/01/25 04:33:38;;;;;;;63.90;34.83;;;5.50;99.90;;;;;;5001140;28;20202;-74
2022/01/25 04:36:24;;;;;;;65.73;36.00;;;5.60;99.90;;;;;;5008815;28;20645;-74
2022/01/25 04:49:57;;;;;;;65.17;36.17;;;5.30;99.90;;;;;;5014330;28;20205;-74
2022/01/25 04:52:29;;;;;;;69.93;37.30;;;5.20;99.90;;;;;;5013707;28;20205;-74
2022/01/25 04:55:07;;;;;;;70.43;38.70;;;5.30;99.90;;;;;;5009012;28;20193;-75
2022/01/25 04:57:43;;;;;;;74.30;41.40;;;5.40;99.90;;;;;;5012876;28;20224;-74
2022/01/25 05:00:17;;;;;;;72.17;39.37;;;5.50;99.90;;;;;;5011493;28;20228;-76
2022/01/25 05:02:51;;;;;;;74.73;40.03;;;5.50;99.90;;;;;;5008367;28;20198;-75
2022/01/25 05:05:23;;;;;;;75.27;39.03;;;5.40;99.90;;;;;;5005054;28;20232;-74
2022/01/25 05:07:57;;;;;;;77.77;39.50;;;5.40;99.90;;;;;;5021554;28;20235;-77
2022/01/25 05:10:25;;;;;;;62.50;34.70;;;5.40;99.90;;;;;;5008270;28;20199;-74
2022/01/25 05:13:05;;;;;;;63.00;35.03;;;5.40;99.90;;;;;;5016799;28;20219;-74
2022/01/25 05:16:02;;;;;;;65.70;35.00;;;5.40;99.90;;;;;;5014555;28;20656;-74
2022/01/25 05:18:41;;;;;;;63.97;35.87;;;5.60;99.90;;;;;;5015915;28;20215;-74
2022/01/25 05:23:53;;;;;;;67.93;35.87;;;5.50;99.90;;;;;;5013391;28;20218;-73
2022/01/25 05:26:21;;;;;;;63.93;34.80;;;5.20;99.90;;;;;;5014318;28;20549;-74
2022/01/25 05:28:48;;;;;;;63.30;34.87;;;5.20;99.90;;;;;;5013524;28;20221;-74
2022/01/25 05:31:17;;;;;;;70.97;38.67;;;5.30;99.90;;;;;;5009835;28;20209;-75
2022/01/25 05:33:44;;;;;;;73.50;36.07;;;5.40;99.90;;;;;;5008221;28;20205;-74
2022/01/25 05:36:13;;;;;;;69.03;36.57;;;5.30;99.90;;;;;;5023452;28;20203;-74
2022/01/25 05:38:42;;;;;;;69.77;39.17;;;5.40;99.90;;;;;;5025782;28;20221;-74
2022/01/25 05:41:09;;;;;;;74.27;38.53;;;5.40;99.90;;;;;;5015156;28;20196;-73
2022/01/25 05:46:33;;;;;;;69.13;36.27;;;5.40;99.90;;;;;;5007170;28;20202;-74
2022/01/25 05:49:47;;;;;;;61.80;33.27;;;5.40;99.90;;;;;;5014566;28;20217;-74
2022/01/25 05:52:15;;;;;;;58.33;34.47;;;5.40;99.90;;;;;;5015330;28;20197;-74
2022/01/25 05:54:42;;;;;;;61.20;33.10;;;5.40;99.90;;;;;;5013528;28;20201;-74
2022/01/25 05:57:09;;;;;;;60.03;34.00;;;5.40;99.90;;;;;;5013182;28;20206;-74
2022/01/25 05:59:37;;;;;;;60.27;32.93;;;5.30;99.90;;;;;;5013401;28;20199;-74
2022/01/25 06:02:07;;;;;;;59.70;33.27;;;5.30;99.90;;;;;;5014388;28;20210;-75
2022/01/25 06:04:34;;;;;;;62.93;34.23;;;5.30;99.90;;;;;;5012898;28;20221;-74
2022/01/25 06:07:02;;;;;;;57.03;34.87;;;5.50;99.90;;;;;;5012991;28;20207;-73
2022/01/25 06:09:29;;;;;;;56.30;32.40;;;5.30;99.90;;;;;;5013535;28;20559;-74
2022/01/25 06:11:57;;;;;;;61.67;34.30;;;5.20;99.90;;;;;;5017113;28;20202;-74
2022/01/25 06:14:24;;;;;;;59.33;32.57;;;5.30;99.90;;;;;;5009616;28;20204;-74
2022/01/25 06:16:52;;;;;;;61.27;33.03;;;5.30;99.90;;;;;;5014705;28;20205;-74
2022/01/25 06:19:20;;;;;;;55.27;31.80;;;5.20;99.90;;;;;;5012878;28;20218;-76
2022/01/25 06:21:52;;;;;;;57.33;32.63;;;5.20;99.90;;;;;;5011244;28;20201;-74
2022/01/25 06:24:19;;;;;;;53.97;31.17;;;5.30;99.90;;;;;;4999240;28;20219;-76
2022/01/25 06:26:46;;;;;;;61.83;33.77;;;5.40;99.90;;;;;;5009577;28;20202;-74
2022/01/25 06:29:17;;;;;;;49.47;30.57;;;5.30;99.90;;;;;;5010809;28;20213;-77
2022/01/25 06:31:46;;;;;;;53.80;31.60;;;5.30;99.90;;;;;;5008118;28;20203;-73
2022/01/25 06:34:14;;;;;;;55.20;31.77;;;5.30;99.90;;;;;;5019768;28;20214;-73
2022/01/25 06:36:43;;;;;;;54.30;31.13;;;5.40;99.90;;;;;;5002679;28;20199;-74
2022/01/25 06:39:11;;;;;;;60.37;33.73;;;5.30;99.90;;;;;;5019664;28;20235;-74
2022/01/25 06:41:39;;;;;;;54.83;31.93;;;5.30;99.90;;;;;;5024931;28;20204;-74
2022/01/25 06:44:07;;;;;;;49.93;30.83;;;5.40;99.90;;;;;;5009550;28;20210;-74
2022/01/25 06:46:35;;;;;;;53.13;30.27;;;5.40;99.90;;;;;;5008312;28;20206;-74
2022/01/25 06:49:06;;;;;;;52.57;30.33;;;5.50;99.90;;;;;;5009790;28;20229;-74
2022/01/25 06:51:33;;;;;;;49.80;29.03;;;5.40;99.90;;;;;;5001424;28;20210;-74
2022/01/25 06:54:02;;;;;;;48.80;29.70;;;5.40;99.90;;;;;;5011288;28;20199;-74
2022/01/25 06:56:29;;;;;;;48.23;28.70;;;5.30;99.90;;;;;;5013122;28;20193;-74
2022/01/25 06:58:57;;;;;;;49.57;28.47;;;5.30;99.90;;;;;;5010355;28;20585;-73
2022/01/25 07:01:38;;;;;;;47.30;28.97;;;5.30;99.90;;;;;;5011703;28;20209;-74
2022/01/25 07:04:05;;;;;;;43.23;26.47;;;5.40;99.90;;;;;;5012054;28;20217;-73
2022/01/25 07:06:33;;;;;;;39.50;24.63;;;5.40;99.90;;;;;;5012441;28;20221;-74
2022/01/25 07:09:03;;;;;;;43.37;25.90;;;5.50;99.90;;;;;;5011326;28;20219;-73
2022/01/25 07:11:30;;;;;;;40.23;25.20;;;5.40;99.90;;;;;;5009935;28;20203;-74
2022/01/25 07:13:57;;;;;;;41.67;25.63;;;5.50;99.90;;;;;;5010040;28;20276;-73
2022/01/25 07:16:29;;;;;;;46.83;29.10;;;5.40;99.90;;;;;;5004074;28;20210;-74
2022/01/25 07:18:56;;;;;;;54.63;30.60;;;5.10;99.90;;;;;;5010523;28;20228;-73
2022/01/25 07:21:24;;;;;;;53.13;31.13;;;5.00;99.90;;;;;;5010074;28;20206;-74
2022/01/25 07:23:51;;;;;;;53.70;30.93;;;5.20;99.90;;;;;;5022289;28;20570;-73
2022/01/25 07:26:20;;;;;;;57.37;31.73;;;5.00;99.90;;;;;;5008021;28;20212;-73
2022/01/25 07:28:57;;;;;;;53.50;30.20;;;5.10;99.90;;;;;;5009184;28;20667;-73
2022/01/25 07:31:25;;;;;;;57.37;32.00;;;5.00;99.90;;;;;;5017720;28;20207;-75
2022/01/25 07:33:53;;;;;;;57.87;32.03;;;5.00;99.90;;;;;;4999169;28;20577;-74
2022/01/25 07:36:20;;;;;;;65.00;36.23;;;5.10;99.90;;;;;;5009679;28;20201;-73
2022/01/25 07:38:47;;;;;;;44.33;28.30;;;5.10;99.90;;;;;;5010853;28;20225;-73
2022/01/25 07:41:15;;;;;;;45.50;29.60;;;5.20;99.90;;;;;;5009936;28;20212;-73
2022/01/25 07:43:48;;;;;;;51.13;30.93;;;5.20;99.90;;;;;;5008804;28;20200;-74
2022/01/25 07:46:16;;;;;;;49.73;30.60;;;5.20;99.90;;;;;;5017487;28;20221;-74
2022/01/25 07:48:44;;;;;;;47.70;29.27;;;5.20;99.90;;;;;;5008250;28;20560;-73
2022/01/25 07:51:12;;;;;;;48.57;29.60;;;5.30;99.90;;;;;;5023245;28;20212;-74
2022/01/25 07:53:41;;;;;;;49.47;30.70;;;5.10;99.90;;;;;;5010348;28;20209;-72
2022/01/25 07:56:08;;;;;;;46.93;28.63;;;5.10;99.90;;;;;;5025935;28;20204;-73
2022/01/25 07:58:35;;;;;;;46.87;28.40;;;5.20;99.90;;;;;;5009577;28;20231;-73
2022/01/25 08:01:05;;;;;;;52.00;29.33;;;5.10;99.90;;;;;;5010501;28;20210;-74
2022/01/25 08:03:32;;;;;;;49.73;29.50;;;5.10;99.90;;;;;;5005660;28;20215;-74
2022/01/25 08:06:00;;;;;;;51.07;30.57;;;5.00;99.90;;;;;;5010072;28;20226;-75
2022/01/25 08:08:46;;;;;;;54.10;31.07;;;5.00;99.90;;;;;;5009890;28;20224;-73
2022/01/25 08:11:13;;;;;;;52.53;30.53;;;5.10;99.90;;;;;;5008400;28;20202;-73
2022/01/25 08:13:47;;;;;;;46.57;29.07;;;5.10;99.90;;;;;;5004327;28;20200;-73
2022/01/25 08:16:16;;;;;;;45.50;28.07;;;5.00;99.90;;;;;;4995635;28;20666;-75
2022/01/25 08:18:44;;;;;;;44.30;27.77;;;5.10;99.90;;;;;;5007046;28;20224;-73
2022/01/25 08:21:11;;;;;;;53.03;33.93;;;5.20;99.90;;;;;;5023526;28;20200;-73
2022/01/25 08:23:38;;;;;;;60.50;36.00;;;5.20;99.90;;;;;;5007117;28;20559;-74
2022/01/25 08:26:06;;;;;;;51.27;30.67;;;5.20;99.90;;;;;;5009414;28;20294;-74
2022/01/25 08:28:44;;;;;;;52.70;30.90;;;5.10;99.90;;;;;;5009790;28;20216;-74
2022/01/25 08:31:12;;;;;;;49.63;31.67;;;5.30;99.90;;;;;;5010641;28;20196;-73
2022/01/25 08:33:41;;;;;;;48.13;29.77;;;5.40;99.90;;;;;;5011119;28;20212;-73
2022/01/25 08:36:08;;;;;;;48.30;29.67;;;5.40;99.90;;;;;;5011224;28;20201;-73
2022/01/25 08:38:36;;;;;;;51.57;31.07;;;5.40;99.90;;;;;;5011065;28;20560;-74
2022/01/25 08:41:06;;;;;;;52.50;31.00;;;5.40;99.90;;;;;;5008678;28;20198;-74
2022/01/25 08:43:33;;;;;;;50.23;29.80;;;5.30;99.90;;;;;;5010663;28;20204;-75
2022/01/25 08:46:05;;;;;;;50.47;31.00;;;5.30;99.90;;;;;;5023749;28;20220;-73
2022/01/25 08:48:33;;;;;;;53.23;31.70;;;5.30;99.90;;;;;;5010211;28;20701;-74
2022/01/25 08:51:02;;;;;;;54.30;32.23;;;5.30;99.90;;;;;;5006798;28;20205;-74
2022/01/25 08:53:29;;;;;;;52.13;32.00;;;5.30;99.90;;;;;;5009760;28;20197;-74
2022/01/25 08:55:57;;;;;;;53.97;32.23;;;5.10;99.90;;;;;;5011216;28;20198;-73
2022/01/25 08:58:24;;;;;;;55.70;31.67;;;5.30;99.90;;;;;;5009493;28;20226;-74
2022/01/25 09:00:52;;;;;;;54.97;32.83;;;5.40;99.90;;;;;;5003741;28;20210;-74
2022/01/25 09:03:19;;;;;;;55.23;31.93;;;5.40;99.90;;;;;;5005572;28;20205;-74
2022/01/25 09:05:47;;;;;;;54.70;32.47;;;5.30;99.90;;;;;;5001777;28;20227;-76
2022/01/25 09:08:20;;;;;;;59.63;34.93;;;5.50;99.90;;;;;;5006895;28;20715;-72
2022/01/25 09:10:49;;;;;;;57.73;33.50;;;5.50;99.90;;;;;;5007820;28;20204;-75
2022/01/25 09:13:17;;;;;;;62.43;37.03;;;5.40;99.90;;;;;;5020723;28;20561;-73
2022/01/25 09:15:45;;;;;;;62.30;34.77;;;5.30;99.90;;;;;;5002844;28;20202;-73
2022/01/25 09:18:12;;;;;;;58.30;34.10;;;5.30;99.90;;;;;;5017569;28;20239;-73
2022/01/25 09:20:40;;;;;;;68.20;35.70;;;5.50;99.90;;;;;;5024705;28;20203;-75
2022/01/25 09:23:11;;;;;;;62.17;33.53;;;5.30;99.90;;;;;;5009656;28;20212;-73
2022/01/25 09:25:42;;;;;;;63.33;33.10;;;5.30;99.90;;;;;;5001503;28;20221;-73
2022/01/25 09:28:09;;;;;;;66.90;34.80;;;5.30;99.90;;;;;;5011000;28;20226;-73
2022/01/25 09:30:36;;;;;;;61.43;34.00;;;5.20;99.90;;;;;;5011149;28;20235;-73
2022/01/25 09:33:04;;;;;;;61.77;33.73;;;5.10;99.90;;;;;;5005839;28;20201;-73
2022/01/25 09:35:31;;;;;;;63.53;34.00;;;5.20;99.90;;;;;;5007125;28;20200;-74
2022/01/25 09:37:59;;;;;;;62.33;34.73;;;5.10;99.90;;;;;;5009579;28;20564;-74
2022/01/25 09:40:59;;;;;;;64.70;35.33;;;5.20;99.90;;;;;;5010880;28;20566;-73
2022/01/25 09:43:28;;;;;;;67.47;36.00;;;5.30;99.90;;;;;;5011438;28;20211;-75
2022/01/25 09:45:55;;;;;;;69.67;37.47;;;5.50;99.90;;;;;;5010856;28;20217;-76
2022/01/25 09:48:23;;;;;;;64.23;36.57;;;5.50;99.90;;;;;;5010643;28;20221;-74
2022/01/25 09:50:51;;;;;;;67.23;36.23;;;5.50;99.90;;;;;;5011407;28;20674;-74
2022/01/25 09:53:21;;;;;;;67.77;37.87;;;5.50;99.90;;;;;;5010326;28;20207;-74
2022/01/25 09:55:48;;;;;;;61.20;34.50;;;5.50;99.90;;;;;;5003977;28;20213;-73
2022/01/25 09:58:17;;;;;;;63.43;36.43;;;5.50;99.90;;;;;;5018310;28;20224;-75
2022/01/25 10:00:47;;;;;;;64.57;35.07;;;5.70;99.90;;;;;;5006292;28;20194;-73
2022/01/25 10:03:22;;;;;;;61.13;35.37;;;5.70;99.90;;;;;;5008455;28;20209;-73
2022/01/25 10:05:51;;;;;;;69.47;37.10;;;5.60;99.90;;;;;;5008447;28;20229;-73
2022/01/25 10:08:21;;;;;;;62.40;34.63;;;5.60;99.90;;;;;;5008520;28;20222;-73
2022/01/25 10:10:50;;;;;;;64.43;35.50;;;5.70;99.90;;;;;;5010963;28;20219;-73
2022/01/25 10:13:22;;;;;;;64.20;35.40;;;5.70;99.90;;;;;;4992681;28;20602;-74
2022/01/25 10:15:52;;;;;;;58.90;34.80;;;5.70;99.90;;;;;;5009202;28;20194;-73
2022/01/25 10:18:20;;;;;;;62.47;35.53;;;5.60;99.90;;;;;;5010296;28;20216;-73
2022/01/25 10:20:53;;;;;;;65.33;34.67;;;5.20;99.90;;;;;;5003006;28;20198;-73
2022/01/25 10:23:30;;;;;;;65.03;37.80;;;5.20;99.90;;;;;;5007748;28;20201;-73
2022/01/25 10:26:00;;;;;;;59.47;33.77;;;5.30;99.90;;;;;;5008081;28;20222;-73
2022/01/25 10:28:31;;;;;;;57.60;34.30;;;5.20;99.90;;;;;;5006360;28;20227;-73
2022/01/25 10:31:18;;;;;;;62.40;33.40;;;5.30;99.90;;;;;;5008826;28;20197;-73
2022/01/25 10:33:52;;;;;;;60.27;34.03;;;5.40;99.90;;;;;;5008576;28;20576;-73
2022/01/25 10:36:23;;;;;;;64.23;36.07;;;5.20;99.90;;;;;;5007665;28;20208;-73
2022/01/25 10:38:54;;;;;;;64.30;36.40;;;5.30;99.90;;;;;;5009517;28;20664;-77
2022/01/25 10:41:24;;;;;;;65.13;34.80;;;5.30;99.90;;;;;;5009642;28;20205;-73
2022/01/25 10:43:55;;;;;;;56.90;32.53;;;5.30;99.90;;;;;;5006398;28;20223;-73
2022/01/25 10:46:25;;;;;;;62.97;34.33;;;5.20;99.90;;;;;;4997200;28;20224;-73
2022/01/25 10:48:56;;;;;;;64.27;34.17;;;5.30;99.90;;;;;;5005330;28;20228;-74
2022/01/25 10:51:26;;;;;;;59.40;33.87;;;5.30;99.90;;;;;;5011069;28;20201;-73
2022/01/25 10:54:02;;;;;;;61.33;34.00;;;5.30;99.90;;;;;;5010374;28;20201;-74
2022/01/25 10:56:38;;;;;;;63.23;36.77;;;5.50;99.90;;;;;;5010707;28;20193;-73
2022/01/25 10:59:10;;;;;;;62.53;35.67;;;5.40;99.90;;;;;;5007645;28;20578;-73
2022/01/25 11:01:48;;;;;;;59.40;33.07;;;5.30;99.90;;;;;;5004240;28;20194;-74
2022/01/25 11:04:17;;;;;;;57.77;33.77;;;5.30;99.90;;;;;;5005481;28;20205;-74
2022/01/25 11:06:46;;;;;;;60.30;35.07;;;5.40;99.90;;;;;;5009591;28;20217;-74
2022/01/25 11:09:16;;;;;;;59.97;32.23;;;5.40;99.90;;;;;;5005539;28;20224;-74
2022/01/25 11:11:49;;;;;;;60.83;33.30;;;5.20;99.90;;;;;;5008082;28;20201;-73
2022/01/25 11:17:03;;;;;;;57.27;32.30;;;5.40;99.90;;;;;;5011316;28;20201;-73
2022/01/25 11:19:30;;;;;;;58.90;32.30;;;5.40;99.90;;;;;;5000515;28;20217;-73
2022/01/25 11:21:59;;;;;;;61.33;33.37;;;5.20;99.90;;;;;;5003849;28;20212;-77
2022/01/25 11:24:31;;;;;;;57.07;31.93;;;5.20;99.90;;;;;;5007278;28;20205;-75
2022/01/25 11:27:03;;;;;;;58.73;32.67;;;5.30;99.90;;;;;;4997267;28;20206;-73
2022/01/25 11:29:35;;;;;;;52.53;30.53;;;5.40;99.90;;;;;;5001894;28;20226;-72
2022/01/25 11:32:06;;;;;;;50.23;29.87;;;5.40;99.90;;;;;;5007530;28;20219;-73
2022/01/25 11:34:41;;;;;;;56.50;31.00;;;5.70;99.90;;;;;;5009898;28;20204;-73
2022/01/25 11:37:09;;;;;;;51.83;30.60;;;5.80;99.90;;;;;;5008970;28;20220;-74
2022/01/25 11:39:41;;;;;;;56.40;32.03;;;5.70;99.90;;;;;;5009902;28;20216;-73
2022/01/25 11:42:25;;;;;;;55.80;32.00;;;5.80;99.90;;;;;;5009453;28;20209;-73
2022/01/25 11:45:01;;;;;;;58.37;34.20;;;5.60;99.90;;;;;;5009895;28;20233;-74
2022/01/25 11:47:32;;;;;;;55.50;32.43;;;5.70;99.90;;;;;;5008446;28;20229;-74
2022/01/25 11:50:12;;;;;;;56.10;33.10;;;5.60;99.90;;;;;;5011203;28;20197;-73
2022/01/25 11:52:47;;;;;;;54.40;32.27;;;5.60;99.90;;;;;;5011205;28;20181;-73
2022/01/25 11:55:25;;;;;;;52.87;30.73;;;5.60;99.90;;;;;;5008982;28;20207;-73
2022/01/25 11:57:55;;;;;;;55.00;32.00;;;5.30;99.90;;;;;;5002815;28;20222;-73
2022/01/25 12:00:37;;;;;;;50.77;30.80;;;5.20;99.90;;;;;;5008558;28;20198;-74
2022/01/25 12:03:21;;;;;;;51.07;31.87;;;5.50;99.90;;;;;;5008747;28;20207;-73
2022/01/25 12:06:01;;;;;;;51.93;32.00;;;5.70;99.90;;;;;;5009612;28;20214;-73
2022/01/25 12:08:39;;;;;;;52.30;30.80;;;5.70;99.90;;;;;;5004539;28;20225;-75
2022/01/25 12:11:41;;;;;;;50.30;31.53;;;5.60;99.90;;;;;;5006121;28;20202;-72
2022/01/25 12:14:18;;;;;;;50.90;30.73;;;5.50;99.90;;;;;;5008895;28;20202;-72
2022/01/25 12:16:48;;;;;;;51.87;29.50;;;5.50;99.90;;;;;;5023433;28;20225;-73
2022/01/25 12:19:18;;;;;;;48.50;28.73;;;5.60;99.90;;;;;;5005609;28;20225;-73
2022/01/25 12:22:11;;;;;;;52.47;31.30;;;5.50;99.90;;;;;;5021577;28;20197;-73
2022/01/25 12:24:58;;;;;;;49.50;29.60;;;5.50;99.90;;;;;;4989835;28;20216;-73
2022/01/25 12:27:49;;;;;;;52.33;31.37;;;5.50;99.90;;;;;;4990555;28;20210;-72
2022/01/25 12:30:31;;;;;;;54.50;31.57;;;5.50;99.90;;;;;;5007331;28;20202;-72
2022/01/25 12:33:02;;;;;;;51.27;29.83;;;5.70;99.90;;;;;;5009945;28;20210;-72
2022/01/25 12:35:42;;;;;;;52.90;29.93;;;5.70;99.90;;;;;;5009905;28;20202;-73
2022/01/25 12:38:14;;;;;;;48.80;31.13;;;5.60;99.90;;;;;;4991574;28;20227;-72
2022/01/25 12:41:00;;;;;;;46.27;28.87;;;5.60;99.90;;;;;;5008720;28;20190;-73
2022/01/25 12:44:15;;;;;;;47.10;30.03;;;5.50;99.90;;;;;;5008484;28;20202;-73
2022/01/25 12:47:17;;;;;;;47.80;26.80;;;5.50;99.90;;;;;;5007627;28;20204;-73
2022/01/25 12:49:45;;;;;;;47.63;28.60;;;5.70;99.90;;;;;;5009813;28;20197;-73
2022/01/25 12:52:17;;;;;;;49.57;29.80;;;5.90;99.90;;;;;;5008515;28;20198;-74
2022/01/25 12:54:46;;;;;;;45.73;27.53;;;5.70;99.90;;;;;;5004291;28;20211;-73
2022/01/25 12:57:16;;;;;;;43.13;26.77;;;5.50;99.90;;;;;;5009296;28;20667;-73
2022/01/25 12:59:50;;;;;;;43.37;27.27;;;5.70;99.90;;;;;;5014246;28;20202;-73
2022/01/25 13:02:20;;;;;;;45.57;26.80;;;5.70;99.90;;;;;;5014578;28;20199;-74
2022/01/25 13:04:49;;;;;;;43.43;26.00;;;5.50;99.90;;;;;;5014328;28;20206;-73
2022/01/25 13:07:16;;;;;;;47.53;27.87;;;5.30;99.90;;;;;;5005382;28;20211;-73
2022/01/25 13:09:46;;;;;;;44.03;27.47;;;5.30;99.90;;;;;;5012959;28;20226;-73
2022/01/25 13:12:16;;;;;;;41.93;27.27;;;5.30;99.90;;;;;;5011005;28;20203;-73
2022/01/25 13:14:50;;;;;;;47.37;27.60;;;5.50;99.90;;;;;;5013461;28;20217;-73
2022/01/25 13:17:19;;;;;;;52.17;29.40;;;5.60;99.90;;;;;;5008707;28;20199;-73
2022/01/25 13:20:03;;;;;;;41.93;27.83;;;5.90;99.90;;;;;;5011801;28;20191;-73
2022/01/25 13:22:36;;;;;;;47.57;27.47;;;5.80;99.90;;;;;;5006080;28;20202;-73
2022/01/25 13:25:32;;;;;;;41.23;26.17;;;5.80;99.90;;;;;;5020762;28;20218;-74
2022/01/25 13:28:09;;;;;;;45.93;27.30;;;5.70;99.90;;;;;;5012261;28;20235;-74
2022/01/25 13:30:45;;;;;;;43.70;27.20;;;5.60;99.90;;;;;;5013826;28;20198;-73
2022/01/25 13:33:15;;;;;;;42.73;28.20;;;5.60;99.90;;;;;;5010631;28;20211;-74
2022/01/25 13:35:48;;;;;;;41.07;26.83;;;5.70;99.90;;;;;;5007773;28;20214;-74
2022/01/25 13:38:36;;;;;;;44.57;27.93;;;5.60;99.90;;;;;;5003811;28;20213;-73
2022/01/25 13:41:17;;;;;;;48.37;28.50;;;5.60;99.90;;;;;;5008563;28;20199;-73
2022/01/25 13:46:31;;;;;;;45.00;28.60;;;5.60;99.90;;;;;;4968595;28;20211;-74
2022/01/25 13:49:02;;;;;;;47.53;28.70;;;5.70;99.90;;;;;;5012034;28;20285;-74
2022/01/25 13:51:42;;;;;;;46.63;28.20;;;5.60;99.90;;;;;;5011740;28;20195;-73
2022/01/25 13:54:14;;;;;;;47.17;28.53;;;5.60;99.90;;;;;;5010494;28;20203;-74
2022/01/25 13:56:42;;;;;;;50.17;29.23;;;5.70;99.90;;;;;;5008105;28;20928;-73
2022/01/25 13:59:10;;;;;;;48.80;28.27;;;5.60;99.90;;;;;;5009599;28;20227;-73
2022/01/25 14:01:40;;;;;;;48.63;29.33;;;5.40;99.90;;;;;;5002728;28;20206;-73
2022/01/25 14:04:09;;;;;;;49.53;29.50;;;5.40;99.90;;;;;;5014616;28;20213;-73
2022/01/25 14:06:40;;;;;;;51.70;29.10;;;5.30;99.90;;;;;;5008887;28;20199;-74
2022/01/25 14:09:12;;;;;;;51.23;29.97;;;5.40;99.90;;;;;;5013614;28;20214;-73
2022/01/25 14:21:33;;;;;;;49.47;28.97;;;5.40;99.90;;;;;;5011613;28;20214;-73
2022/01/25 14:23:24;;;;;;;53.83;30.37;;;5.40;99.90;;;;;;5010220;28;20191;-74
2022/01/25 14:26:00;;;;;;;51.43;30.40;;;5.40;99.90;;;;;;5011024;28;20557;-73
2022/01/25 14:28:28;;;;;;;52.63;30.63;;;5.50;99.90;;;;;;5010535;28;20209;-74
2022/01/25 14:30:58;;;;;;;52.60;29.80;;;5.60;99.90;;;;;;5012362;28;20209;-73